sensor_id;sensor_type;location;lat;lon;timestamp;pressure;altitude;pressure_sealevel;temperature;humidity
64211;BME280;50528;48.514;14.394;2023-02-17T00:00:28;94615.04;;;3.13;68.71
64211;BME280;50528;48.514;14.394;2023-02-17T00:01:27;94611.20;;;3.12;68.61
64211;BME280;50528;48.514;14.394;2023-02-17T00:02:02;94614.09;;;3.14;68.56
64211;BME280;50528;48.514;14.394;2023-02-17T00:02:36;94613.14;;;3.15;68.70
64211;BME280;50528;48.514;14.394;2023-02-17T00:03:11;94613.01;;;3.16;68.48
64211;BME280;50528;48.514;14.394;2023-02-17T00:03:47;94612.29;;;3.16;68.66
64211;BME280;50528;48.514;14.394;2023-02-17T00:04:21;94609.68;;;3.18;68.41
64211;BME280;50528;48.514;14.394;2023-02-17T00:04:55;94611.11;;;3.19;68.43
64211;BME280;50528;48.514;14.394;2023-02-17T00:05:28;94608.75;;;3.18;68.52
64211;BME280;50528;48.514;14.394;2023-02-17T00:06:06;94611.03;;;3.19;68.53
64211;BME280;50528;48.514;14.394;2023-02-17T00:06:40;94613.53;;;3.20;68.63
64211;BME280;50528;48.514;14.394;2023-02-17T00:07:14;94618.11;;;3.19;68.46
64211;BME280;50528;48.514;14.394;2023-02-17T00:07:47;94619.53;;;3.20;68.60
64211;BME280;50528;48.514;14.394;2023-02-17T00:08:23;94616.15;;;3.19;68.72
64211;BME280;50528;48.514;14.394;2023-02-17T00:08:57;94618.23;;;3.21;68.64
64211;BME280;50528;48.514;14.394;2023-02-17T00:09:32;94613.81;;;3.21;68.83
64211;BME280;50528;48.514;14.394;2023-02-17T00:10:06;94616.33;;;3.20;68.62
64211;BME280;50528;48.514;14.394;2023-02-17T00:10:44;94621.56;;;3.22;68.74
64211;BME280;50528;48.514;14.394;2023-02-17T00:11:18;94620.55;;;3.22;68.87
64211;BME280;50528;48.514;14.394;2023-02-17T00:11:54;94621.59;;;3.22;68.91
64211;BME280;50528;48.514;14.394;2023-02-17T00:12:27;94619.52;;;3.22;68.84
64211;BME280;50528;48.514;14.394;2023-02-17T00:13:01;94619.25;;;3.23;68.99
64211;BME280;50528;48.514;14.394;2023-02-17T00:13:36;94619.70;;;3.24;69.08
64211;BME280;50528;48.514;14.394;2023-02-17T00:14:11;94617.44;;;3.22;68.92
64211;BME280;50528;48.514;14.394;2023-02-17T00:14:45;94621.85;;;3.24;69.08
64211;BME280;50528;48.514;14.394;2023-02-17T00:15:18;94621.58;;;3.25;69.08
64211;BME280;50528;48.514;14.394;2023-02-17T00:15:52;94621.14;;;3.26;69.21
64211;BME280;50528;48.514;14.394;2023-02-17T00:16:26;94619.96;;;3.27;69.04
64211;BME280;50528;48.514;14.394;2023-02-17T00:17:00;94624.91;;;3.29;68.83
64211;BME280;50528;48.514;14.394;2023-02-17T00:17:36;94621.03;;;3.28;68.92
64211;BME280;50528;48.514;14.394;2023-02-17T00:18:10;94617.67;;;3.27;69.14
64211;BME280;50528;48.514;14.394;2023-02-17T00:18:44;94616.88;;;3.30;68.94
64211;BME280;50528;48.514;14.394;2023-02-17T00:19:17;94618.39;;;3.30;68.76
64211;BME280;50528;48.514;14.394;2023-02-17T00:19:59;94620.15;;;3.30;68.92
64211;BME280;50528;48.514;14.394;2023-02-17T00:20:33;94618.16;;;3.30;68.80
64211;BME280;50528;48.514;14.394;2023-02-17T00:21:14;94616.69;;;3.32;68.82
64211;BME280;50528;48.514;14.394;2023-02-17T00:21:49;94616.10;;;3.32;68.85
64211;BME280;50528;48.514;14.394;2023-02-17T00:22:23;94613.89;;;3.32;68.88
64211;BME280;50528;48.514;14.394;2023-02-17T00:22:57;94615.70;;;3.33;69.18
64211;BME280;50528;48.514;14.394;2023-02-17T00:23:31;94611.47;;;3.33;69.30
64211;BME280;50528;48.514;14.394;2023-02-17T00:24:04;94619.04;;;3.34;69.33
64211;BME280;50528;48.514;14.394;2023-02-17T00:24:39;94621.34;;;3.36;69.22
64211;BME280;50528;48.514;14.394;2023-02-17T00:25:12;94620.64;;;3.33;69.30
64211;BME280;50528;48.514;14.394;2023-02-17T00:25:46;94617.70;;;3.32;69.39
64211;BME280;50528;48.514;14.394;2023-02-17T00:26:21;94615.13;;;3.31;69.27
64211;BME280;50528;48.514;14.394;2023-02-17T00:26:58;94612.83;;;3.32;69.21
64211;BME280;50528;48.514;14.394;2023-02-17T00:27:35;94610.52;;;3.33;69.27
64211;BME280;50528;48.514;14.394;2023-02-17T00:28:13;94611.15;;;3.33;69.31
64211;BME280;50528;48.514;14.394;2023-02-17T00:28:50;94610.26;;;3.35;69.49
64211;BME280;50528;48.514;14.394;2023-02-17T00:29:26;94611.71;;;3.40;69.60
64211;BME280;50528;48.514;14.394;2023-02-17T00:30:02;94606.08;;;3.39;69.26
64211;BME280;50528;48.514;14.394;2023-02-17T00:30:39;94610.73;;;3.38;69.27
64211;BME280;50528;48.514;14.394;2023-02-17T00:31:18;94613.68;;;3.35;69.46
64211;BME280;50528;48.514;14.394;2023-02-17T00:31:55;94609.82;;;3.35;69.42
64211;BME280;50528;48.514;14.394;2023-02-17T00:32:32;94611.70;;;3.35;69.19
64211;BME280;50528;48.514;14.394;2023-02-17T00:33:08;94613.48;;;3.35;69.29
64211;BME280;50528;48.514;14.394;2023-02-17T00:33:45;94614.52;;;3.38;69.41
64211;BME280;50528;48.514;14.394;2023-02-17T00:34:21;94613.98;;;3.39;69.51
64211;BME280;50528;48.514;14.394;2023-02-17T00:34:54;94616.08;;;3.38;69.35
64211;BME280;50528;48.514;14.394;2023-02-17T00:35:33;94609.16;;;3.35;69.59
64211;BME280;50528;48.514;14.394;2023-02-17T00:36:13;94612.02;;;3.34;69.48
64211;BME280;50528;48.514;14.394;2023-02-17T00:36:47;94609.11;;;3.40;69.53
64211;BME280;50528;48.514;14.394;2023-02-17T00:37:24;94583.88;;;3.24;69.61
64211;BME280;50528;48.514;14.394;2023-02-17T00:38:00;94616.96;;;3.41;69.67
64211;BME280;50528;48.514;14.394;2023-02-17T00:38:33;94610.95;;;3.47;69.80
64211;BME280;50528;48.514;14.394;2023-02-17T00:39:07;94607.48;;;3.49;69.76
64211;BME280;50528;48.514;14.394;2023-02-17T00:39:41;94607.48;;;3.53;69.89
64211;BME280;50528;48.514;14.394;2023-02-17T00:40:15;94606.23;;;3.59;69.92
64211;BME280;50528;48.514;14.394;2023-02-17T00:40:49;94613.14;;;3.62;70.04
64211;BME280;50528;48.514;14.394;2023-02-17T00:41:24;94609.67;;;3.63;69.97
64211;BME280;50528;48.514;14.394;2023-02-17T00:41:59;94605.41;;;3.66;69.83
64211;BME280;50528;48.514;14.394;2023-02-17T00:42:34;94609.10;;;3.69;70.00
64211;BME280;50528;48.514;14.394;2023-02-17T00:43:08;94609.51;;;3.75;69.90
64211;BME280;50528;48.514;14.394;2023-02-17T00:43:41;94611.68;;;3.81;69.81
64211;BME280;50528;48.514;14.394;2023-02-17T00:44:19;94600.40;;;3.87;69.72
64211;BME280;50528;48.514;14.394;2023-02-17T00:44:56;94616.20;;;3.95;69.41
64211;BME280;50528;48.514;14.394;2023-02-17T00:45:30;94619.25;;;3.91;69.48
64211;BME280;50528;48.514;14.394;2023-02-17T00:46:04;94618.40;;;3.89;69.47
64211;BME280;50528;48.514;14.394;2023-02-17T00:46:38;94618.63;;;3.87;69.54
64211;BME280;50528;48.514;14.394;2023-02-17T00:47:12;94618.65;;;3.86;69.61
64211;BME280;50528;48.514;14.394;2023-02-17T00:47:45;94614.28;;;3.85;69.57
64211;BME280;50528;48.514;14.394;2023-02-17T00:48:21;94615.77;;;3.92;69.36
64211;BME280;50528;48.514;14.394;2023-02-17T00:48:55;94615.24;;;3.94;69.50
64211;BME280;50528;48.514;14.394;2023-02-17T00:49:29;94611.84;;;3.94;69.26
64211;BME280;50528;48.514;14.394;2023-02-17T00:50:03;94612.45;;;3.95;69.17
64211;BME280;50528;48.514;14.394;2023-02-17T00:50:36;94612.56;;;3.91;69.29
64211;BME280;50528;48.514;14.394;2023-02-17T00:51:10;94607.38;;;3.87;69.42
64211;BME280;50528;48.514;14.394;2023-02-17T00:51:44;94611.77;;;3.86;69.34
64211;BME280;50528;48.514;14.394;2023-02-17T00:52:18;94609.63;;;3.85;69.46
64211;BME280;50528;48.514;14.394;2023-02-17T00:52:52;94610.10;;;3.84;69.60
64211;BME280;50528;48.514;14.394;2023-02-17T00:53:26;94601.53;;;3.79;69.40
64211;BME280;50528;48.514;14.394;2023-02-17T00:54:00;94601.52;;;3.83;69.61
64211;BME280;50528;48.514;14.394;2023-02-17T00:54:38;94607.20;;;3.88;69.60
64211;BME280;50528;48.514;14.394;2023-02-17T00:55:14;94609.40;;;3.86;69.46
64211;BME280;50528;48.514;14.394;2023-02-17T00:55:48;94606.55;;;3.88;69.65
64211;BME280;50528;48.514;14.394;2023-02-17T00:56:22;94607.85;;;3.82;69.62
64211;BME280;50528;48.514;14.394;2023-02-17T00:56:56;94606.88;;;3.77;69.49
64211;BME280;50528;48.514;14.394;2023-02-17T00:57:29;94602.74;;;3.75;69.63
64211;BME280;50528;48.514;14.394;2023-02-17T00:58:04;94598.62;;;3.75;69.65
64211;BME280;50528;48.514;14.394;2023-02-17T00:58:38;94603.20;;;3.76;69.60
64211;BME280;50528;48.514;14.394;2023-02-17T00:59:13;94601.21;;;3.79;69.79
64211;BME280;50528;48.514;14.394;2023-02-17T00:59:47;94596.92;;;3.79;69.57
64211;BME280;50528;48.514;14.394;2023-02-17T01:00:20;94593.84;;;3.77;69.42
64211;BME280;50528;48.514;14.394;2023-02-17T01:00:55;94593.77;;;3.76;69.67
64211;BME280;50528;48.514;14.394;2023-02-17T01:01:29;94594.23;;;3.78;69.74
64211;BME280;50528;48.514;14.394;2023-02-17T01:02:04;94593.29;;;3.74;69.66
64211;BME280;50528;48.514;14.394;2023-02-17T01:02:38;94593.77;;;3.75;69.68
64211;BME280;50528;48.514;14.394;2023-02-17T01:03:11;94589.05;;;3.78;69.59
64211;BME280;50528;48.514;14.394;2023-02-17T01:03:45;94591.35;;;3.80;69.31
64211;BME280;50528;48.514;14.394;2023-02-17T01:04:19;94589.26;;;3.84;69.48
64211;BME280;50528;48.514;14.394;2023-02-17T01:04:53;94590.36;;;3.81;69.12
64211;BME280;50528;48.514;14.394;2023-02-17T01:05:26;94591.81;;;3.79;69.37
64211;BME280;50528;48.514;14.394;2023-02-17T01:06:06;94589.80;;;3.77;69.41
64211;BME280;50528;48.514;14.394;2023-02-17T01:06:40;94593.02;;;3.77;69.44
64211;BME280;50528;48.514;14.394;2023-02-17T01:07:13;94592.38;;;3.75;69.40
64211;BME280;50528;48.514;14.394;2023-02-17T01:07:47;94589.58;;;3.75;69.19
64211;BME280;50528;48.514;14.394;2023-02-17T01:08:21;94589.42;;;3.75;69.43
64211;BME280;50528;48.514;14.394;2023-02-17T01:08:57;94591.98;;;3.75;69.32
64211;BME280;50528;48.514;14.394;2023-02-17T01:09:32;94603.21;;;3.74;69.40
64211;BME280;50528;48.514;14.394;2023-02-17T01:10:10;94605.58;;;3.75;69.42
64211;BME280;50528;48.514;14.394;2023-02-17T01:10:45;94603.96;;;3.77;69.26
64211;BME280;50528;48.514;14.394;2023-02-17T01:11:23;94604.46;;;3.75;69.28
64211;BME280;50528;48.514;14.394;2023-02-17T01:11:57;94613.09;;;3.78;69.55
64211;BME280;50528;48.514;14.394;2023-02-17T01:12:30;94613.71;;;3.80;69.37
64211;BME280;50528;48.514;14.394;2023-02-17T01:13:04;94615.18;;;3.75;69.40
64211;BME280;50528;48.514;14.394;2023-02-17T01:13:38;94606.61;;;3.75;69.45
64211;BME280;50528;48.514;14.394;2023-02-17T01:14:13;94608.88;;;3.76;69.62
64211;BME280;50528;48.514;14.394;2023-02-17T01:14:47;94610.48;;;3.78;69.60
64211;BME280;50528;48.514;14.394;2023-02-17T01:15:21;94611.91;;;3.81;69.61
64211;BME280;50528;48.514;14.394;2023-02-17T01:15:55;94612.81;;;3.86;69.41
64211;BME280;50528;48.514;14.394;2023-02-17T01:16:32;94612.56;;;3.90;69.22
64211;BME280;50528;48.514;14.394;2023-02-17T01:17:07;94609.55;;;3.88;69.19
64211;BME280;50528;48.514;14.394;2023-02-17T01:17:40;94612.70;;;3.87;69.42
64211;BME280;50528;48.514;14.394;2023-02-17T01:18:15;94612.30;;;3.88;69.39
64211;BME280;50528;48.514;14.394;2023-02-17T01:18:49;94615.08;;;3.90;69.28
64211;BME280;50528;48.514;14.394;2023-02-17T01:19:23;94611.80;;;3.90;69.26
64211;BME280;50528;48.514;14.394;2023-02-17T01:19:58;94610.29;;;3.90;69.41
64211;BME280;50528;48.514;14.394;2023-02-17T01:20:36;94613.85;;;3.92;69.37
64211;BME280;50528;48.514;14.394;2023-02-17T01:21:19;94608.50;;;3.97;69.07
64211;BME280;50528;48.514;14.394;2023-02-17T01:21:53;94608.09;;;3.96;69.03
64211;BME280;50528;48.514;14.394;2023-02-17T01:22:26;94608.50;;;3.97;68.94
64211;BME280;50528;48.514;14.394;2023-02-17T01:23:00;94601.70;;;3.95;69.17
64211;BME280;50528;48.514;14.394;2023-02-17T01:23:34;94594.66;;;3.93;69.14
64211;BME280;50528;48.514;14.394;2023-02-17T01:24:09;94599.94;;;3.94;69.19
64211;BME280;50528;48.514;14.394;2023-02-17T01:24:43;94599.35;;;3.98;69.03
64211;BME280;50528;48.514;14.394;2023-02-17T01:25:17;94596.89;;;4.03;69.02
64211;BME280;50528;48.514;14.394;2023-02-17T01:25:50;94597.67;;;4.03;69.01
64211;BME280;50528;48.514;14.394;2023-02-17T01:26:26;94594.11;;;4.04;68.98
64211;BME280;50528;48.514;14.394;2023-02-17T01:27:00;94590.89;;;4.05;68.96
64211;BME280;50528;48.514;14.394;2023-02-17T01:27:34;94587.73;;;4.05;68.89
64211;BME280;50528;48.514;14.394;2023-02-17T01:28:11;94590.28;;;4.07;68.78
64211;BME280;50528;48.514;14.394;2023-02-17T01:28:48;94586.09;;;4.06;68.83
64211;BME280;50528;48.514;14.394;2023-02-17T01:29:22;94583.73;;;4.05;68.75
64211;BME280;50528;48.514;14.394;2023-02-17T01:29:55;94586.84;;;4.07;69.07
64211;BME280;50528;48.514;14.394;2023-02-17T01:30:29;94586.27;;;4.08;68.98
64211;BME280;50528;48.514;14.394;2023-02-17T01:31:09;94584.30;;;4.09;68.97
64211;BME280;50528;48.514;14.394;2023-02-17T01:31:43;94582.04;;;4.10;69.09
64211;BME280;50528;48.514;14.394;2023-02-17T01:32:17;94583.38;;;4.12;68.83
64211;BME280;50528;48.514;14.394;2023-02-17T01:32:52;94581.02;;;4.11;68.84
64211;BME280;50528;48.514;14.394;2023-02-17T01:33:27;94585.65;;;4.12;68.80
64211;BME280;50528;48.514;14.394;2023-02-17T01:34:03;94582.70;;;4.12;69.14
64211;BME280;50528;48.514;14.394;2023-02-17T01:34:37;94583.05;;;4.13;69.11
64211;BME280;50528;48.514;14.394;2023-02-17T01:35:11;94583.05;;;4.15;68.82
64211;BME280;50528;48.514;14.394;2023-02-17T01:35:45;94580.75;;;4.16;68.94
64211;BME280;50528;48.514;14.394;2023-02-17T01:36:19;94577.70;;;4.18;68.97
64211;BME280;50528;48.514;14.394;2023-02-17T01:36:53;94575.61;;;4.20;68.88
64211;BME280;50528;48.514;14.394;2023-02-17T01:37:26;94577.23;;;4.21;68.94
64211;BME280;50528;48.514;14.394;2023-02-17T01:38:00;94573.38;;;4.23;68.69
64211;BME280;50528;48.514;14.394;2023-02-17T01:38:35;94571.84;;;4.24;68.80
64211;BME280;50528;48.514;14.394;2023-02-17T01:39:10;94569.56;;;4.24;68.72
64211;BME280;50528;48.514;14.394;2023-02-17T01:39:45;94572.90;;;4.27;68.83
64211;BME280;50528;48.514;14.394;2023-02-17T01:40:18;94572.38;;;4.30;68.83
64211;BME280;50528;48.514;14.394;2023-02-17T01:40:52;94568.57;;;4.30;68.49
64211;BME280;50528;48.514;14.394;2023-02-17T01:41:27;94567.64;;;4.30;68.56
64211;BME280;50528;48.514;14.394;2023-02-17T01:42:01;94567.77;;;4.32;68.25
64211;BME280;50528;48.514;14.394;2023-02-17T01:42:34;94566.02;;;4.37;68.22
64211;BME280;50528;48.514;14.394;2023-02-17T01:43:14;94563.35;;;4.46;67.96
64211;BME280;50528;48.514;14.394;2023-02-17T01:44:20;94564.73;;;4.45;68.01
64211;BME280;50528;48.514;14.394;2023-02-17T01:45:56;94564.44;;;4.40;68.11
64211;BME280;50528;48.514;14.394;2023-02-17T01:46:34;94566.48;;;4.42;68.21
64211;BME280;50528;48.514;14.394;2023-02-17T01:47:11;94559.88;;;4.43;67.78
64211;BME280;50528;48.514;14.394;2023-02-17T01:48:28;94563.70;;;4.52;67.48
64211;BME280;50528;48.514;14.394;2023-02-17T01:49:34;94564.16;;;4.49;67.69
64211;BME280;50528;48.514;14.394;2023-02-17T01:50:07;94559.92;;;4.50;67.66
64211;BME280;50528;48.514;14.394;2023-02-17T01:51:04;94558.64;;;4.50;67.57
64211;BME280;50528;48.514;14.394;2023-02-17T01:51:40;94557.16;;;4.51;67.69
64211;BME280;50528;48.514;14.394;2023-02-17T01:52:23;94556.09;;;4.54;67.44
64211;BME280;50528;48.514;14.394;2023-02-17T01:52:59;94553.60;;;4.58;67.39
64211;BME280;50528;48.514;14.394;2023-02-17T01:53:42;94557.05;;;4.58;67.32
64211;BME280;50528;48.514;14.394;2023-02-17T01:54:24;94556.21;;;4.60;67.20
64211;BME280;50528;48.514;14.394;2023-02-17T01:55:04;94548.67;;;4.61;67.27
64211;BME280;50528;48.514;14.394;2023-02-17T01:55:40;94545.35;;;4.61;67.28
64211;BME280;50528;48.514;14.394;2023-02-17T01:56:15;94541.88;;;4.62;67.36
64211;BME280;50528;48.514;14.394;2023-02-17T01:56:50;94546.15;;;4.64;67.12
64211;BME280;50528;48.514;14.394;2023-02-17T01:57:26;94546.98;;;4.67;67.11
64211;BME280;50528;48.514;14.394;2023-02-17T01:58:03;94547.09;;;4.71;67.17
64211;BME280;50528;48.514;14.394;2023-02-17T01:58:41;94548.45;;;4.68;67.02
64211;BME280;50528;48.514;14.394;2023-02-17T01:59:19;94546.86;;;4.66;67.22
64211;BME280;50528;48.514;14.394;2023-02-17T01:59:54;94542.73;;;4.67;67.07
64211;BME280;50528;48.514;14.394;2023-02-17T02:00:30;94541.98;;;4.66;67.13
64211;BME280;50528;48.514;14.394;2023-02-17T02:01:05;94542.58;;;4.65;67.08
64211;BME280;50528;48.514;14.394;2023-02-17T02:01:39;94544.89;;;4.66;67.19
64211;BME280;50528;48.514;14.394;2023-02-17T02:02:13;94541.94;;;4.66;67.08
64211;BME280;50528;48.514;14.394;2023-02-17T02:02:48;94539.34;;;4.67;67.20
64211;BME280;50528;48.514;14.394;2023-02-17T02:03:24;94540.48;;;4.71;66.93
64211;BME280;50528;48.514;14.394;2023-02-17T02:04:02;94541.13;;;4.70;66.89
64211;BME280;50528;48.514;14.394;2023-02-17T02:04:38;94537.48;;;4.70;67.03
64211;BME280;50528;48.514;14.394;2023-02-17T02:05:15;94537.35;;;4.68;66.97
64211;BME280;50528;48.514;14.394;2023-02-17T02:05:50;94536.38;;;4.67;66.93
64211;BME280;50528;48.514;14.394;2023-02-17T02:06:25;94540.89;;;4.70;67.01
64211;BME280;50528;48.514;14.394;2023-02-17T02:06:59;94537.23;;;4.70;66.88
64211;BME280;50528;48.514;14.394;2023-02-17T02:07:36;94538.40;;;4.71;66.98
64211;BME280;50528;48.514;14.394;2023-02-17T02:08:13;94537.96;;;4.70;66.99
64211;BME280;50528;48.514;14.394;2023-02-17T02:08:55;94533.13;;;4.70;66.82
64211;BME280;50528;48.514;14.394;2023-02-17T02:09:40;94535.23;;;4.71;66.80
64211;BME280;50528;48.514;14.394;2023-02-17T02:10:16;94535.15;;;4.70;66.93
64211;BME280;50528;48.514;14.394;2023-02-17T02:10:50;94538.35;;;4.68;67.03
64211;BME280;50528;48.514;14.394;2023-02-17T02:11:23;94533.52;;;4.65;67.08
64211;BME280;50528;48.514;14.394;2023-02-17T02:11:57;94535.70;;;4.67;67.05
64211;BME280;50528;48.514;14.394;2023-02-17T02:12:39;94534.41;;;4.67;66.96
64211;BME280;50528;48.514;14.394;2023-02-17T02:13:13;94533.68;;;4.67;67.04
64211;BME280;50528;48.514;14.394;2023-02-17T02:13:50;94530.20;;;4.67;66.93
64211;BME280;50528;48.514;14.394;2023-02-17T02:14:34;94517.77;;;4.56;66.84
64211;BME280;50528;48.514;14.394;2023-02-17T02:15:10;94534.32;;;4.66;67.09
64211;BME280;50528;48.514;14.394;2023-02-17T02:16:12;94528.64;;;4.66;67.05
64211;BME280;50528;48.514;14.394;2023-02-17T02:17:15;94527.66;;;4.61;66.87
64211;BME280;50528;48.514;14.394;2023-02-17T02:18:55;94520.98;;;4.52;67.10
64211;BME280;50528;48.514;14.394;2023-02-17T02:20:44;94518.55;;;4.49;67.24
64211;BME280;50528;48.514;14.394;2023-02-17T02:21:39;94520.27;;;4.47;67.11
64211;BME280;50528;48.514;14.394;2023-02-17T02:24:33;94513.60;;;4.38;67.21
64211;BME280;50528;48.514;14.394;2023-02-17T02:27:41;94510.51;;;4.29;67.39
64211;BME280;50528;48.514;14.394;2023-02-17T02:28:50;94511.45;;;4.26;67.54
64211;BME280;50528;48.514;14.394;2023-02-17T02:30:02;94512.84;;;4.22;67.45
64211;BME280;50528;48.514;14.394;2023-02-17T02:34:01;94502.16;;;4.24;67.72
64211;BME280;50528;48.514;14.394;2023-02-17T02:34:46;94498.79;;;4.22;67.74
64211;BME280;50528;48.514;14.394;2023-02-17T02:37:35;94501.24;;;4.23;67.87
64211;BME280;50528;48.514;14.394;2023-02-17T02:38:18;94499.59;;;4.25;67.71
64211;BME280;50528;48.514;14.394;2023-02-17T02:39:13;94492.73;;;4.27;67.72
64211;BME280;50528;48.514;14.394;2023-02-17T02:39:51;94492.95;;;4.30;67.79
64211;BME280;50528;48.514;14.394;2023-02-17T02:40:31;94492.15;;;4.32;67.71
64211;BME280;50528;48.514;14.394;2023-02-17T02:41:20;94495.68;;;4.32;67.92
64211;BME280;50528;48.514;14.394;2023-02-17T02:41:58;94497.76;;;4.32;67.75
64211;BME280;50528;48.514;14.394;2023-02-17T02:42:35;94494.02;;;4.35;67.85
64211;BME280;50528;48.514;14.394;2023-02-17T02:43:11;94496.41;;;4.34;67.70
64211;BME280;50528;48.514;14.394;2023-02-17T02:43:47;94495.13;;;4.33;67.86
64211;BME280;50528;48.514;14.394;2023-02-17T02:44:22;94499.56;;;4.32;67.83
64211;BME280;50528;48.514;14.394;2023-02-17T02:44:56;94499.48;;;4.33;67.78
64211;BME280;50528;48.514;14.394;2023-02-17T02:45:30;94498.56;;;4.33;67.94
64211;BME280;50528;48.514;14.394;2023-02-17T02:46:05;94495.20;;;4.32;67.91
64211;BME280;50528;48.514;14.394;2023-02-17T02:46:39;94496.63;;;4.32;67.90
64211;BME280;50528;48.514;14.394;2023-02-17T02:48:11;94495.31;;;4.32;67.97
64211;BME280;50528;48.514;14.394;2023-02-17T02:48:46;94496.89;;;4.34;67.98
64211;BME280;50528;48.514;14.394;2023-02-17T02:50:47;94495.17;;;4.35;67.83
64211;BME280;50528;48.514;14.394;2023-02-17T02:55:02;94496.98;;;4.06;68.19
64211;BME280;50528;48.514;14.394;2023-02-17T02:58:23;94498.56;;;4.12;68.28
64211;BME280;50528;48.514;14.394;2023-02-17T02:59:26;94503.09;;;4.12;68.68
64211;BME280;50528;48.514;14.394;2023-02-17T03:01:01;94506.73;;;4.14;68.57
64211;BME280;50528;48.514;14.394;2023-02-17T03:02:07;94505.27;;;4.08;68.61
64211;BME280;50528;48.514;14.394;2023-02-17T03:03:00;94502.56;;;4.07;68.74
64211;BME280;50528;48.514;14.394;2023-02-17T03:04:01;94498.84;;;4.07;68.62
64211;BME280;50528;48.514;14.394;2023-02-17T03:04:44;94507.92;;;4.10;68.90
64211;BME280;50528;48.514;14.394;2023-02-17T03:05:31;94506.76;;;4.05;68.59
64211;BME280;50528;48.514;14.394;2023-02-17T03:06:20;94504.86;;;4.00;68.70
64211;BME280;50528;48.514;14.394;2023-02-17T03:07:00;94499.58;;;3.96;68.85
64211;BME280;50528;48.514;14.394;2023-02-17T03:08:03;94512.83;;;4.02;69.12
64211;BME280;50528;48.514;14.394;2023-02-17T03:08:43;94515.91;;;3.97;69.20
64211;BME280;50528;48.514;14.394;2023-02-17T03:09:22;94514.77;;;4.01;69.05
64211;BME280;50528;48.514;14.394;2023-02-17T03:09:58;94516.99;;;4.04;69.14
64211;BME280;50528;48.514;14.394;2023-02-17T03:10:32;94511.80;;;4.09;69.02
64211;BME280;50528;48.514;14.394;2023-02-17T03:11:06;94513.98;;;4.07;69.24
64211;BME280;50528;48.514;14.394;2023-02-17T03:11:40;94513.05;;;4.10;69.20
64211;BME280;50528;48.514;14.394;2023-02-17T03:12:14;94514.23;;;4.09;69.19
64211;BME280;50528;48.514;14.394;2023-02-17T03:12:48;94509.64;;;4.10;69.31
64211;BME280;50528;48.514;14.394;2023-02-17T03:13:22;94510.16;;;4.10;69.43
64211;BME280;50528;48.514;14.394;2023-02-17T03:14:05;94508.97;;;4.11;69.66
64211;BME280;50528;48.514;14.394;2023-02-17T03:14:41;94507.61;;;4.14;69.59
64211;BME280;50528;48.514;14.394;2023-02-17T03:15:22;94508.85;;;4.18;69.56
64211;BME280;50528;48.514;14.394;2023-02-17T03:15:58;94505.98;;;4.20;69.67
64211;BME280;50528;48.514;14.394;2023-02-17T03:16:34;94506.48;;;4.23;69.60
64211;BME280;50528;48.514;14.394;2023-02-17T03:17:08;94506.33;;;4.20;69.49
64211;BME280;50528;48.514;14.394;2023-02-17T03:17:42;94508.28;;;4.19;69.32
64211;BME280;50528;48.514;14.394;2023-02-17T03:18:16;94506.23;;;4.18;69.53
64211;BME280;50528;48.514;14.394;2023-02-17T03:18:49;94510.90;;;4.18;69.32
64211;BME280;50528;48.514;14.394;2023-02-17T03:19:24;94515.98;;;4.19;69.61
64211;BME280;50528;48.514;14.394;2023-02-17T03:20:00;94513.01;;;4.19;69.50
64211;BME280;50528;48.514;14.394;2023-02-17T03:20:45;94515.81;;;4.19;69.50
64211;BME280;50528;48.514;14.394;2023-02-17T03:21:21;94513.92;;;4.19;69.51
64211;BME280;50528;48.514;14.394;2023-02-17T03:22:04;94511.58;;;4.18;69.50
64211;BME280;50528;48.514;14.394;2023-02-17T03:22:43;94509.16;;;4.16;69.43
64211;BME280;50528;48.514;14.394;2023-02-17T03:23:19;94512.27;;;4.15;69.34
64211;BME280;50528;48.514;14.394;2023-02-17T03:23:53;94513.27;;;4.16;69.43
64211;BME280;50528;48.514;14.394;2023-02-17T03:24:27;94511.27;;;4.15;69.61
64211;BME280;50528;48.514;14.394;2023-02-17T03:25:01;94511.80;;;4.16;69.45
64211;BME280;50528;48.514;14.394;2023-02-17T03:25:34;94510.66;;;4.17;69.53
64211;BME280;50528;48.514;14.394;2023-02-17T03:26:08;94511.64;;;4.19;69.56
64211;BME280;50528;48.514;14.394;2023-02-17T03:26:42;94509.23;;;4.19;69.60
64211;BME280;50528;48.514;14.394;2023-02-17T03:27:15;94509.34;;;4.21;69.39
64211;BME280;50528;48.514;14.394;2023-02-17T03:27:49;94504.09;;;4.19;69.58
64211;BME280;50528;48.514;14.394;2023-02-17T03:28:23;94506.58;;;4.20;69.46
64211;BME280;50528;48.514;14.394;2023-02-17T03:28:56;94503.63;;;4.20;69.55
64211;BME280;50528;48.514;14.394;2023-02-17T03:29:30;94499.90;;;4.20;69.30
64211;BME280;50528;48.514;14.394;2023-02-17T03:30:05;94503.35;;;4.23;69.33
64211;BME280;50528;48.514;14.394;2023-02-17T03:30:40;94504.34;;;4.27;69.61
64211;BME280;50528;48.514;14.394;2023-02-17T03:31:13;94508.84;;;4.29;69.29
64211;BME280;50528;48.514;14.394;2023-02-17T03:31:47;94504.23;;;4.29;69.35
64211;BME280;50528;48.514;14.394;2023-02-17T03:32:21;94507.04;;;4.36;69.33
64211;BME280;50528;48.514;14.394;2023-02-17T03:32:54;94508.14;;;4.35;69.25
64211;BME280;50528;48.514;14.394;2023-02-17T03:33:28;94505.58;;;4.34;69.30
64211;BME280;50528;48.514;14.394;2023-02-17T03:34:02;94506.84;;;4.32;69.29
64211;BME280;50528;48.514;14.394;2023-02-17T03:34:35;94501.84;;;4.32;69.39
64211;BME280;50528;48.514;14.394;2023-02-17T03:35:09;94499.61;;;4.33;69.29
64211;BME280;50528;48.514;14.394;2023-02-17T03:35:43;94499.25;;;4.33;69.38
64211;BME280;50528;48.514;14.394;2023-02-17T03:36:16;94495.35;;;4.32;69.12
64211;BME280;50528;48.514;14.394;2023-02-17T03:36:50;94494.27;;;4.32;69.20
64211;BME280;50528;48.514;14.394;2023-02-17T03:37:23;94496.63;;;4.32;69.24
64211;BME280;50528;48.514;14.394;2023-02-17T03:37:57;94497.69;;;4.33;69.38
64211;BME280;50528;48.514;14.394;2023-02-17T03:38:30;94499.41;;;4.33;69.46
64211;BME280;50528;48.514;14.394;2023-02-17T03:39:04;94500.04;;;4.32;69.38